createdAt,value
2023-04-11T00:00:57.141Z,0.00
2023-04-11T00:01:57.130Z,0.00
2023-04-11T00:02:57.163Z,0.00
2023-04-11T00:03:57.124Z,0.00
2023-04-11T00:04:56.879Z,0.00
2023-04-11T00:05:56.774Z,0.00
2023-04-11T00:06:56.759Z,0.00
2023-04-11T00:07:56.694Z,0.00
2023-04-11T00:08:56.991Z,0.00
2023-04-11T00:09:56.566Z,0.00
2023-04-11T00:10:56.474Z,0.00
2023-04-11T00:11:56.445Z,0.00
2023-04-11T00:12:56.597Z,0.00
2023-04-11T00:13:56.283Z,0.00
2023-04-11T00:14:56.225Z,0.00
2023-04-11T00:15:56.156Z,0.00
2023-04-11T00:16:56.155Z,0.00
2023-04-11T00:17:56.083Z,0.00
2023-04-11T00:18:56.100Z,0.00
2023-04-11T00:19:55.909Z,0.00
2023-04-11T00:20:55.888Z,0.00
2023-04-11T00:21:55.781Z,0.00
2023-04-11T00:22:55.691Z,0.00
2023-04-11T00:23:55.641Z,0.00
2023-04-11T00:24:55.589Z,0.00
2023-04-11T00:25:55.555Z,0.00
2023-04-11T00:26:55.467Z,0.00
2023-04-11T00:27:55.375Z,0.00
2023-04-11T00:28:55.604Z,0.00
2023-04-11T00:29:55.322Z,0.00
2023-04-11T00:30:55.238Z,0.00
2023-04-11T00:31:55.187Z,0.00
2023-04-11T00:32:55.172Z,0.00
2023-04-11T00:33:54.998Z,0.00
2023-04-11T00:34:54.962Z,0.00
2023-04-11T00:35:54.928Z,0.00
2023-04-11T00:36:54.835Z,0.00
2023-04-11T00:37:54.742Z,0.00
2023-04-11T00:38:55.246Z,0.00
2023-04-11T00:39:54.617Z,0.00
2023-04-11T00:40:54.550Z,0.00
2023-04-11T00:41:54.534Z,0.00
2023-04-11T00:42:54.493Z,0.00
2023-04-11T00:43:54.414Z,0.00
2023-04-11T00:44:54.364Z,0.00
2023-04-11T00:45:54.301Z,0.00
2023-04-11T00:46:54.167Z,0.00
2023-04-11T00:50:12.546Z,0.00
2023-04-11T00:51:13.544Z,0.00
2023-04-11T00:52:13.446Z,0.00
2023-04-11T00:53:13.403Z,0.00
2023-04-11T00:54:13.286Z,0.00
2023-04-11T00:55:13.249Z,0.00
2023-04-11T00:56:13.212Z,0.00
2023-04-11T00:57:13.130Z,0.00
2023-04-11T00:58:14.057Z,0.00
2023-04-11T00:59:12.996Z,0.00
2023-04-11T01:00:12.950Z,0.00
2023-04-11T01:01:12.958Z,0.00
2023-04-11T01:02:12.923Z,0.00
2023-04-11T01:03:12.855Z,0.00
2023-04-11T01:04:12.795Z,0.00
2023-04-11T01:05:12.684Z,0.00
2023-04-11T01:06:12.563Z,0.00
2023-04-11T01:07:12.549Z,0.00
2023-04-11T01:08:13.036Z,0.00
2023-04-11T01:09:12.374Z,0.00
2023-04-11T01:10:12.277Z,0.00
2023-04-11T01:11:12.247Z,0.00
2023-04-11T01:12:12.215Z,0.00
2023-04-11T01:13:12.138Z,0.00
2023-04-11T01:14:12.060Z,0.00
2023-04-11T01:15:11.992Z,0.00
2023-04-11T01:16:12.033Z,0.00
2023-04-11T01:17:11.895Z,0.00
2023-04-11T01:18:11.799Z,0.00
2023-04-11T01:19:11.741Z,0.00
2023-04-11T01:20:11.713Z,0.00
2023-04-11T01:21:11.621Z,0.00
2023-04-11T01:22:11.557Z,0.00
2023-04-11T01:23:11.514Z,0.00
2023-04-11T01:24:11.460Z,0.00
2023-04-11T01:25:11.640Z,0.00
2023-04-11T01:26:11.277Z,0.00
2023-04-11T01:27:11.241Z,0.00
2023-04-11T01:28:11.204Z,0.00
2023-04-11T01:29:11.136Z,0.00
2023-04-11T01:30:11.046Z,0.00
2023-04-11T01:31:32.206Z,0.00
2023-04-11T01:32:10.961Z,0.00
2023-04-11T01:33:10.859Z,0.00
2023-04-11T01:34:10.825Z,0.00
2023-04-11T01:35:10.744Z,0.00
2023-04-11T01:36:10.667Z,0.00
2023-04-11T01:37:10.613Z,0.00
2023-04-11T01:38:10.544Z,0.00
2023-04-11T01:39:10.455Z,0.00
2023-04-11T01:40:10.430Z,0.00
2023-04-11T01:41:10.361Z,0.00
2023-04-11T01:42:10.287Z,0.00
2023-04-11T01:43:10.248Z,0.00
2023-04-11T01:44:10.157Z,0.00
2023-04-11T01:45:10.101Z,0.00
2023-04-11T01:46:10.012Z,0.00
2023-04-11T01:47:09.970Z,0.00
2023-04-11T01:48:10.004Z,0.00
2023-04-11T01:49:09.957Z,0.00
2023-04-11T01:50:09.781Z,0.00
2023-04-11T01:51:09.720Z,0.00
2023-04-11T01:52:09.615Z,1.00
2023-04-11T01:53:09.595Z,0.00
2023-04-11T01:54:09.560Z,0.00
2023-04-11T01:55:09.570Z,0.00
2023-04-11T01:56:09.459Z,0.00
2023-04-11T01:57:09.336Z,0.00
2023-04-11T01:58:09.249Z,0.00
2023-04-11T01:59:09.217Z,0.00
2023-04-11T02:00:09.148Z,0.00
2023-04-11T02:01:09.186Z,0.00
2023-04-11T02:02:09.052Z,0.00
2023-04-11T02:03:09.104Z,0.00
2023-04-11T02:04:09.036Z,0.00
2023-04-11T02:05:08.835Z,0.00
2023-04-11T02:06:08.777Z,0.00
2023-04-11T02:07:08.746Z,0.00
2023-04-11T02:08:08.663Z,0.00
2023-04-11T02:09:08.603Z,0.00
2023-04-11T02:10:08.516Z,0.00
2023-04-11T02:11:08.465Z,0.00
2023-04-11T02:12:08.392Z,0.00
2023-04-11T02:13:08.370Z,0.00
2023-04-11T02:14:08.296Z,0.00
2023-04-11T02:15:08.219Z,0.00
2023-04-11T02:16:08.191Z,0.00
2023-04-11T02:17:08.106Z,0.00
2023-04-11T02:18:08.079Z,0.00
2023-04-11T02:19:07.966Z,0.00
2023-04-11T02:20:07.889Z,0.00
2023-04-11T02:21:07.850Z,0.00
2023-04-11T02:22:07.792Z,0.00
2023-04-11T02:23:07.700Z,0.00
2023-04-11T02:24:07.665Z,0.00
2023-04-11T02:25:07.582Z,0.00
2023-04-11T02:26:07.482Z,0.00
2023-04-11T02:27:07.451Z,0.00
2023-04-11T02:28:08.300Z,0.00
2023-04-11T02:29:07.315Z,0.00
2023-04-11T02:30:07.255Z,0.00
2023-04-11T02:31:07.307Z,0.00
2023-04-11T02:32:07.294Z,0.00
2023-04-11T02:33:07.109Z,0.00
2023-04-11T02:34:07.030Z,0.00
2023-04-11T02:35:06.960Z,0.00
2023-04-11T02:36:06.896Z,0.00
2023-04-11T02:39:25.282Z,0.00
2023-04-11T02:40:26.217Z,0.00
2023-04-11T02:41:26.181Z,0.00
2023-04-11T02:42:26.110Z,0.00
2023-04-11T02:43:26.058Z,0.00
2023-04-11T02:44:26.006Z,0.00
2023-04-11T02:45:25.925Z,0.00
2023-04-11T02:46:25.879Z,0.00
2023-04-11T02:47:25.810Z,0.00
2023-04-11T02:48:25.706Z,0.00
2023-04-11T02:49:25.677Z,0.00
2023-04-11T02:50:25.630Z,0.00
2023-04-11T02:51:25.516Z,0.00
2023-04-11T02:52:25.454Z,0.00
2023-04-11T02:53:25.395Z,0.00
2023-04-11T02:54:25.325Z,0.00
2023-04-11T02:55:25.309Z,0.00
2023-04-11T02:56:25.218Z,0.00
2023-04-11T02:57:25.160Z,0.00
2023-04-11T02:58:25.079Z,0.00
2023-04-11T02:59:24.984Z,0.00
2023-04-11T03:00:24.916Z,0.00
2023-04-11T03:01:24.920Z,0.00
2023-04-11T03:02:24.966Z,0.00
2023-04-11T03:03:24.852Z,0.00
2023-04-11T03:04:24.699Z,0.00
2023-04-11T03:05:24.599Z,0.00
2023-04-11T03:06:24.566Z,0.00
2023-04-11T03:07:24.525Z,0.00
2023-04-11T03:08:24.417Z,0.00
2023-04-11T03:09:24.416Z,0.00
2023-04-11T03:10:24.338Z,0.00
2023-04-11T03:11:24.283Z,0.00
2023-04-11T03:12:24.185Z,0.00
2023-04-11T03:13:24.144Z,0.00
2023-04-11T03:14:45.075Z,0.00
2023-04-11T03:15:23.968Z,0.00
2023-04-11T03:16:23.936Z,0.00
2023-04-11T03:17:23.926Z,0.00
2023-04-11T03:18:23.804Z,0.00
2023-04-11T03:19:23.715Z,0.00
2023-04-11T03:20:23.657Z,0.00
2023-04-11T03:21:23.621Z,0.00
2023-04-11T03:22:23.557Z,0.00
2023-04-11T03:23:23.513Z,0.00
2023-04-11T03:24:23.392Z,0.00
2023-04-11T03:25:23.367Z,0.00
2023-04-11T03:26:23.332Z,0.00
2023-04-11T03:27:23.234Z,0.00
2023-04-11T03:28:23.200Z,0.00
2023-04-11T03:29:23.114Z,0.00
2023-04-11T03:30:23.045Z,0.00
2023-04-11T03:31:23.049Z,0.00
2023-04-11T03:32:22.994Z,0.00
2023-04-11T03:33:22.869Z,0.00
2023-04-11T03:34:22.790Z,0.00
2023-04-11T03:35:22.739Z,0.00
2023-04-11T03:36:22.668Z,0.00
2023-04-11T03:37:22.616Z,0.00
2023-04-11T03:38:22.558Z,0.00
2023-04-11T03:39:22.486Z,0.00
2023-04-11T03:40:22.389Z,0.00
2023-04-11T03:41:22.393Z,0.00
2023-04-11T03:42:22.287Z,0.00
2023-04-11T03:43:22.231Z,0.00
2023-04-11T03:44:22.233Z,0.00
2023-04-11T03:45:22.130Z,0.00
2023-04-11T03:46:22.096Z,0.00
2023-04-11T03:47:22.017Z,0.00
2023-04-11T03:48:21.946Z,0.00
2023-04-11T03:49:21.855Z,0.00
2023-04-11T03:50:21.796Z,0.00
2023-04-11T03:51:21.698Z,0.00
2023-04-11T03:52:21.625Z,0.00
2023-04-11T03:53:21.591Z,0.00
2023-04-11T03:54:21.565Z,0.00
2023-04-11T03:55:21.493Z,0.00
2023-04-11T03:56:21.477Z,0.00
2023-04-11T03:57:21.361Z,0.00
2023-04-11T03:58:21.283Z,0.00
2023-04-11T03:59:21.208Z,0.00
2023-04-11T04:00:21.133Z,0.00
2023-04-11T04:01:21.082Z,0.00
2023-04-11T04:02:21.122Z,0.00
2023-04-11T04:03:21.071Z,0.00
2023-04-11T04:04:20.956Z,0.00
2023-04-11T04:05:20.883Z,0.00
2023-04-11T04:06:20.816Z,0.00
2023-04-11T04:07:20.676Z,0.00
2023-04-11T04:08:20.654Z,0.00
2023-04-11T04:09:20.634Z,0.00
2023-04-11T04:10:20.486Z,0.00
2023-04-11T04:11:20.457Z,0.00
2023-04-11T04:12:20.364Z,1.00
2023-04-11T04:13:20.268Z,1.00
2023-04-11T04:14:20.266Z,1.00
2023-04-11T04:15:20.160Z,1.00
2023-04-11T04:16:20.126Z,2.00
2023-04-11T04:17:19.993Z,2.00
2023-04-11T04:18:19.960Z,3.00
2023-04-11T04:19:19.887Z,2.00
2023-04-11T04:20:19.881Z,8.00
2023-04-11T04:21:19.788Z,7.00
2023-04-11T04:22:19.701Z,7.00
2023-04-11T04:23:19.659Z,9.00
2023-04-11T04:24:19.602Z,8.00
2023-04-11T04:25:19.488Z,7.00
2023-04-11T04:26:19.461Z,7.00
2023-04-11T04:27:19.369Z,14.00
2023-04-11T04:28:19.307Z,13.00
2023-04-11T04:29:19.238Z,15.00
2023-04-11T04:30:19.162Z,20.00
2023-04-11T04:31:19.177Z,24.00
2023-04-11T04:32:19.055Z,25.00
2023-04-11T04:33:19.046Z,28.00
2023-04-11T04:34:18.951Z,34.00
2023-04-11T04:35:18.938Z,38.00
2023-04-11T04:36:18.818Z,44.00
2023-04-11T04:37:18.761Z,49.00
2023-04-11T04:38:18.733Z,56.00
2023-04-11T04:39:18.657Z,58.00
2023-04-11T04:40:18.563Z,61.00
2023-04-11T04:41:18.494Z,69.00
2023-04-11T04:42:18.670Z,75.00
2023-04-11T04:43:18.629Z,77.00
2023-04-11T04:44:18.322Z,89.00
2023-04-11T04:45:18.272Z,95.00
2023-04-11T04:46:18.264Z,99.00
2023-04-11T04:47:18.098Z,105.00
2023-04-11T04:48:18.084Z,112.00
2023-04-11T04:49:17.998Z,115.00
2023-04-11T04:50:18.163Z,120.00
2023-04-11T04:51:17.870Z,127.00
2023-04-11T04:52:17.789Z,131.00
2023-04-11T04:53:17.774Z,141.00
2023-04-11T04:54:17.696Z,147.00
2023-04-11T04:55:17.629Z,157.00
2023-04-11T04:56:17.598Z,163.00
2023-04-11T04:57:17.511Z,166.00
2023-04-11T04:58:17.430Z,163.00
2023-04-11T04:59:17.388Z,159.00
2023-04-11T05:00:17.282Z,157.00
2023-04-11T05:01:17.358Z,156.00
2023-04-11T05:04:36.559Z,190.00
2023-04-11T05:05:37.462Z,183.00
2023-04-11T05:06:37.403Z,169.00
2023-04-11T05:07:37.335Z,167.00
2023-04-11T05:08:37.237Z,174.00
2023-04-11T05:09:37.244Z,183.00
2023-04-11T05:10:37.127Z,189.00
2023-04-11T05:11:37.104Z,192.00
2023-04-11T05:12:37.046Z,203.00
2023-04-11T05:13:36.941Z,217.00
2023-04-11T05:14:36.889Z,232.00
2023-04-11T05:15:36.841Z,241.00
2023-04-11T05:16:36.822Z,244.00
2023-04-11T05:17:36.786Z,254.00
2023-04-11T05:18:36.613Z,269.00
2023-04-11T05:19:36.616Z,271.00
2023-04-11T05:20:36.509Z,266.00
2023-04-11T05:21:36.455Z,272.00
2023-04-11T05:22:36.385Z,284.00
2023-04-11T05:23:36.348Z,301.00
2023-04-11T05:24:36.268Z,321.00
2023-04-11T05:25:36.228Z,358.00
2023-04-11T05:26:36.129Z,399.00
2023-04-11T05:27:36.089Z,474.00
2023-04-11T05:28:36.029Z,472.00
2023-04-11T05:29:35.961Z,509.00
2023-04-11T05:30:35.901Z,534.00
2023-04-11T05:31:35.805Z,512.00
2023-04-11T05:32:35.864Z,484.00
2023-04-11T05:33:35.704Z,480.00
2023-04-11T05:34:35.641Z,477.00
2023-04-11T05:35:35.554Z,531.00
2023-04-11T05:36:35.492Z,506.00
2023-04-11T05:37:35.408Z,480.00
2023-04-11T05:38:35.378Z,515.00
2023-04-11T05:39:39.329Z,715.00
2023-04-11T05:40:35.219Z,772.00
2023-04-11T05:41:35.200Z,615.00
2023-04-11T05:42:35.125Z,1075.00
2023-04-11T05:43:35.059Z,960.00
2023-04-11T05:44:34.963Z,631.00
2023-04-11T05:45:34.942Z,449.00
2023-04-11T05:46:34.933Z,505.00
2023-04-11T05:47:34.892Z,449.00
2023-04-11T05:48:34.740Z,477.00
2023-04-11T05:49:34.680Z,401.00
2023-04-11T05:50:34.587Z,353.00
2023-04-11T05:51:34.595Z,331.00
2023-04-11T05:52:34.460Z,350.00
2023-04-11T05:53:34.492Z,387.00
2023-04-11T05:54:34.347Z,425.00
2023-04-11T05:55:34.318Z,473.00
2023-04-11T05:56:34.228Z,543.00
2023-04-11T05:57:34.211Z,619.00
2023-04-11T05:58:34.109Z,680.00
2023-04-11T05:59:34.066Z,724.00
2023-04-11T06:00:33.986Z,774.00
2023-04-11T06:01:33.913Z,365.00
2023-04-11T06:02:34.003Z,2136.00
2023-04-11T06:03:33.969Z,1133.00
2023-04-11T06:04:34.031Z,2490.00
2023-04-11T06:05:33.667Z,2435.00
2023-04-11T06:06:33.618Z,2608.00
2023-04-11T06:07:33.565Z,3481.00
2023-04-11T06:08:33.468Z,868.00
2023-04-11T06:09:34.299Z,2257.00
2023-04-11T06:10:33.348Z,1370.00
2023-04-11T06:11:33.367Z,2640.00
2023-04-11T06:12:33.218Z,5911.00
2023-04-11T06:13:33.153Z,8249.00
2023-04-11T06:14:33.081Z,8660.00
2023-04-11T06:15:33.070Z,7941.00
2023-04-11T06:16:33.012Z,6295.00
2023-04-11T06:17:32.922Z,9829.00
2023-04-11T06:18:32.849Z,6870.00
2023-04-11T06:19:32.751Z,1115.00
2023-04-11T06:20:32.736Z,1081.00
2023-04-11T06:21:32.690Z,1087.00
2023-04-11T06:22:32.582Z,987.00
2023-04-11T06:23:32.545Z,419.00
2023-04-11T06:24:32.457Z,1540.00
2023-04-11T06:25:32.400Z,1300.00
2023-04-11T06:26:32.360Z,7807.00
2023-04-11T06:27:32.293Z,6638.00
2023-04-11T06:28:32.206Z,5016.00
2023-04-11T06:29:32.186Z,5403.00
2023-04-11T06:30:32.091Z,3668.00
2023-04-11T06:31:32.067Z,5678.00
2023-04-11T06:32:32.011Z,914.00
2023-04-11T06:33:31.935Z,3205.00
2023-04-11T06:34:31.849Z,6279.00
2023-04-11T06:35:31.860Z,5403.00
2023-04-11T06:36:31.729Z,4960.00
2023-04-11T06:37:31.613Z,1484.00
2023-04-11T06:38:31.563Z,1048.00
2023-04-11T06:39:32.733Z,839.00
2023-04-11T06:40:31.451Z,856.00
2023-04-11T06:41:31.387Z,1048.00
2023-04-11T06:42:31.345Z,1081.00
2023-04-11T06:43:31.241Z,1053.00
2023-04-11T06:44:31.264Z,1038.00
2023-04-11T06:45:31.150Z,1112.00
2023-04-11T06:46:31.084Z,1139.00
2023-04-11T06:47:30.989Z,630.00
2023-04-11T06:48:30.942Z,2988.00
2023-04-11T06:49:30.879Z,1152.00
2023-04-11T06:50:30.844Z,6896.00
2023-04-11T06:51:30.776Z,11289.00
2023-04-11T06:52:30.698Z,4806.00
2023-04-11T06:53:30.647Z,12055.00
2023-04-11T06:54:30.602Z,8325.00
2023-04-11T06:55:30.508Z,2276.00
2023-04-11T06:56:30.439Z,3438.00
2023-04-11T06:57:30.679Z,2704.00
2023-04-11T06:58:30.321Z,2159.00
2023-04-11T06:59:30.290Z,1806.00
2023-04-11T07:00:30.188Z,1896.00
2023-04-11T07:01:30.186Z,2248.00
2023-04-11T07:02:30.227Z,2645.00
2023-04-11T07:03:30.137Z,2185.00
2023-04-11T07:04:30.072Z,1396.00
2023-04-11T07:05:29.848Z,2241.00
2023-04-11T07:06:29.806Z,1993.00
2023-04-11T07:07:29.777Z,1594.00
2023-04-11T07:08:29.710Z,1311.00
2023-04-11T07:09:29.927Z,1029.00
2023-04-11T07:10:29.560Z,973.00
2023-04-11T07:11:29.472Z,888.00
2023-04-11T07:12:29.457Z,728.00
2023-04-11T07:13:29.397Z,597.00
2023-04-11T07:14:29.302Z,483.00
2023-04-11T07:15:29.252Z,633.00
2023-04-11T07:16:29.269Z,624.00
2023-04-11T07:17:29.165Z,585.00
2023-04-11T07:18:29.036Z,460.00
2023-04-11T07:19:28.987Z,344.00
2023-04-11T07:20:28.934Z,281.00
2023-04-11T07:21:28.849Z,238.00
2023-04-11T07:22:28.802Z,296.00
2023-04-11T07:23:28.743Z,351.00
2023-04-11T07:24:28.683Z,543.00
2023-04-11T07:25:28.608Z,495.00
2023-04-11T07:26:28.519Z,579.00
2023-04-11T07:27:30.932Z,882.00
2023-04-11T07:28:28.418Z,1291.00
2023-04-11T07:29:28.352Z,1412.00
2023-04-11T07:30:28.308Z,1329.00
2023-04-11T07:31:28.293Z,487.00
2023-04-11T07:32:28.189Z,1074.00
2023-04-11T07:33:28.138Z,4839.00
2023-04-11T07:34:28.051Z,6815.00
2023-04-11T07:35:27.974Z,4098.00
2023-04-11T07:36:27.962Z,2812.00
2023-04-11T07:37:27.826Z,2758.00
2023-04-11T07:38:27.759Z,2638.00
2023-04-11T07:39:27.747Z,2259.00
2023-04-11T07:40:27.667Z,1888.00
2023-04-11T07:41:27.596Z,1608.00
2023-04-11T07:42:27.520Z,2028.00
2023-04-11T07:43:27.443Z,1731.00
2023-04-11T07:44:27.459Z,1828.00
2023-04-11T07:45:29.822Z,1599.00
2023-04-11T07:46:27.285Z,1225.00
2023-04-11T07:47:27.246Z,1624.00
2023-04-11T07:48:27.182Z,1664.00
2023-04-11T07:49:27.070Z,1347.00
2023-04-11T07:50:27.037Z,1346.00
2023-04-11T07:51:26.993Z,2648.00
2023-04-11T07:52:26.876Z,2091.00
2023-04-11T07:53:26.872Z,1082.00
2023-04-11T07:54:26.806Z,20000.00
2023-04-11T07:55:26.764Z,16767.00
2023-04-11T07:56:26.689Z,2909.00
2023-04-11T07:57:26.597Z,1303.00
2023-04-11T07:58:26.555Z,9590.00
2023-04-11T07:59:26.484Z,3287.00
2023-04-11T08:00:26.440Z,2594.00
2023-04-11T08:01:26.339Z,719.00
2023-04-11T08:02:26.397Z,3237.00
2023-04-11T08:03:26.542Z,774.00
2023-04-11T08:04:26.360Z,6649.00
2023-04-11T08:05:26.206Z,6658.00
2023-04-11T08:06:26.048Z,6519.00
2023-04-11T08:07:26.016Z,3498.00
2023-04-11T08:08:25.865Z,2737.00
2023-04-11T08:09:25.821Z,1882.00
2023-04-11T08:10:25.792Z,1477.00
2023-04-11T08:11:25.724Z,1568.00
2023-04-11T08:12:25.668Z,2102.00
2023-04-11T08:13:25.553Z,1683.00
2023-04-11T08:14:25.533Z,1940.00
2023-04-11T08:15:25.470Z,2191.00
2023-04-11T08:16:25.480Z,1752.00
2023-04-11T08:17:28.368Z,1457.00
2023-04-11T08:18:25.324Z,1221.00
2023-04-11T08:19:25.220Z,995.00
2023-04-11T08:20:25.240Z,932.00
2023-04-11T08:21:46.063Z,814.00
2023-04-11T08:22:25.045Z,596.00
2023-04-11T08:23:24.971Z,561.00
2023-04-11T08:24:24.858Z,620.00
2023-04-11T08:25:24.873Z,587.00
2023-04-11T08:26:24.763Z,653.00
2023-04-11T08:27:24.708Z,846.00
2023-04-11T08:28:24.639Z,662.00
2023-04-11T08:29:24.542Z,515.00
2023-04-11T08:30:24.519Z,1276.00
2023-04-11T08:31:24.499Z,2055.00
2023-04-11T08:32:24.416Z,1457.00
2023-04-11T08:33:24.482Z,1683.00
2023-04-11T08:34:24.260Z,1452.00
2023-04-11T08:35:24.190Z,1326.00
2023-04-11T08:36:24.110Z,2798.00
2023-04-11T08:37:24.093Z,3396.00
2023-04-11T08:38:24.019Z,1064.00
2023-04-11T08:39:44.929Z,5801.00
2023-04-11T08:40:25.190Z,2164.00
2023-04-11T08:41:23.815Z,4079.00
2023-04-11T08:42:23.758Z,4199.00
2023-04-11T08:43:23.685Z,1952.00
2023-04-11T08:44:23.626Z,2498.00
2023-04-11T08:45:23.587Z,1883.00
2023-04-11T08:46:23.556Z,1325.00
2023-04-11T08:47:23.478Z,1101.00
2023-04-11T08:48:23.353Z,1266.00
2023-04-11T08:49:23.313Z,1507.00
2023-04-11T08:50:23.291Z,1412.00
2023-04-11T08:51:23.219Z,1227.00
2023-04-11T08:52:23.094Z,961.00
2023-04-11T08:53:23.089Z,892.00
2023-04-11T08:54:23.027Z,1002.00
2023-04-11T08:55:22.934Z,1270.00
2023-04-11T08:56:22.868Z,1679.00
2023-04-11T08:59:41.230Z,1366.00
2023-04-11T09:00:42.125Z,1510.00
2023-04-11T09:01:42.228Z,1146.00
2023-04-11T09:02:42.059Z,770.00
2023-04-11T09:03:41.969Z,483.00
2023-04-11T09:04:42.143Z,544.00
2023-04-11T09:05:41.836Z,799.00
2023-04-11T09:06:41.743Z,1112.00
2023-04-11T09:07:41.704Z,1317.00
2023-04-11T09:08:41.622Z,1380.00
2023-04-11T09:09:41.562Z,1576.00
2023-04-11T09:10:41.729Z,2052.00
2023-04-11T09:11:41.428Z,805.00
2023-04-11T09:12:41.369Z,5678.00
2023-04-11T09:13:41.277Z,827.00
2023-04-11T09:14:41.302Z,4926.00
2023-04-11T09:15:41.256Z,7809.00
2023-04-11T09:16:41.152Z,2800.00
2023-04-11T09:17:41.196Z,6227.00
2023-04-11T09:18:41.031Z,6982.00
2023-04-11T09:19:40.901Z,2646.00
2023-04-11T09:20:40.885Z,3930.00
2023-04-11T09:21:40.776Z,2780.00
2023-04-11T09:22:43.057Z,2202.00
2023-04-11T09:23:40.681Z,1460.00
2023-04-11T09:24:40.593Z,1838.00
2023-04-11T09:25:40.529Z,2287.00
2023-04-11T09:26:40.475Z,1752.00
2023-04-11T09:27:40.433Z,1460.00
2023-04-11T09:28:40.376Z,771.00
2023-04-11T09:29:40.321Z,4053.00
2023-04-11T09:30:40.218Z,2703.00
2023-04-11T09:31:40.192Z,826.00
2023-04-11T09:32:40.168Z,6579.00
2023-04-11T09:33:40.053Z,1131.00
2023-04-11T09:37:03.401Z,14920.00
2023-04-11T09:37:59.266Z,5307.00
2023-04-11T09:38:59.204Z,28156.00
2023-04-11T09:39:59.135Z,5343.00
2023-04-11T09:40:59.054Z,25731.00
2023-04-11T09:41:59.036Z,76641.00
2023-04-11T09:42:58.967Z,70478.00
2023-04-11T09:43:59.169Z,30671.00
2023-04-11T09:44:58.844Z,14705.00
2023-04-11T09:45:58.731Z,9260.00
2023-04-11T09:46:58.774Z,7950.00
2023-04-11T09:47:58.662Z,8904.00
2023-04-11T09:48:58.598Z,5449.00
2023-04-11T09:49:58.512Z,6868.00
2023-04-11T09:50:58.859Z,8243.00
2023-04-11T09:51:58.388Z,8024.00
2023-04-11T09:52:59.417Z,6602.00
2023-04-11T09:53:58.521Z,7212.00
2023-04-11T09:55:23.193Z,7124.00
2023-04-11T09:55:58.133Z,7151.00
2023-04-11T09:56:58.040Z,7003.00
2023-04-11T09:57:57.982Z,7204.00
2023-04-11T09:58:58.093Z,7333.00
2023-04-11T09:59:57.933Z,6426.00
2023-04-11T10:00:57.856Z,7202.00
2023-04-11T10:01:57.880Z,1641.00
2023-04-11T10:02:57.854Z,8079.00
2023-04-11T10:03:58.351Z,7297.00
2023-04-11T10:04:57.628Z,3874.00
2023-04-11T10:05:57.540Z,963.00
2023-04-11T10:06:57.727Z,7456.00
2023-04-11T10:07:57.392Z,5207.00
2023-04-11T10:08:57.651Z,1836.00
2023-04-11T10:09:57.233Z,3967.00
2023-04-11T10:10:57.177Z,2174.00
2023-04-11T10:11:57.103Z,1882.00
2023-04-11T10:12:57.056Z,11326.00
2023-04-11T10:13:57.388Z,34803.00
2023-04-11T10:14:56.952Z,34007.00
2023-04-11T10:15:56.935Z,12709.00
2023-04-11T10:16:56.981Z,7674.00
2023-04-11T10:17:56.827Z,6149.00
2023-04-11T10:18:56.739Z,7061.00
2023-04-11T10:19:56.985Z,4639.00
2023-04-11T10:20:56.599Z,3919.00
2023-04-11T10:21:56.555Z,1747.00
2023-04-11T10:22:56.480Z,3812.00
2023-04-11T10:23:56.678Z,5930.00
2023-04-11T10:24:56.331Z,3921.00
2023-04-11T10:25:56.291Z,3462.00
2023-04-11T10:26:56.204Z,3229.00
2023-04-11T10:27:56.134Z,1043.00
2023-04-11T10:28:56.109Z,6247.00
2023-04-11T10:29:56.049Z,5430.00
2023-04-11T10:35:32.711Z,2323.00
2023-04-11T10:36:33.549Z,2391.00
2023-04-11T10:37:33.488Z,745.00
2023-04-11T10:38:33.448Z,5512.00
2023-04-11T10:39:33.364Z,5252.00
2023-04-11T10:40:33.344Z,5031.00
2023-04-11T10:41:33.317Z,5033.00
2023-04-11T10:42:33.182Z,4921.00
2023-04-11T10:43:33.137Z,4892.00
2023-04-11T10:44:33.077Z,4850.00
2023-04-11T10:45:33.045Z,4691.00
2023-04-11T10:46:32.989Z,4856.00
2023-04-11T10:47:32.947Z,4540.00
2023-04-11T10:48:32.833Z,1138.00
2023-04-11T10:49:32.823Z,4547.00
2023-04-11T10:50:32.728Z,3984.00
2023-04-11T10:51:32.685Z,656.00
2023-04-11T10:52:32.631Z,4790.00
2023-04-11T10:53:32.519Z,4740.00
2023-04-11T10:54:32.455Z,4638.00
2023-04-11T10:55:32.408Z,4768.00
2023-04-11T10:56:32.312Z,4785.00
2023-04-11T10:57:32.245Z,4490.00
2023-04-11T10:58:32.266Z,4603.00
2023-04-11T10:59:32.152Z,4561.00
2023-04-11T11:00:32.697Z,4501.00
2023-04-11T11:01:37.662Z,4863.00
2023-04-11T11:02:32.086Z,5793.00
2023-04-11T11:03:32.024Z,5811.00
2023-04-11T11:04:32.016Z,2977.00
2023-04-11T11:05:31.802Z,9786.00
2023-04-11T11:06:31.717Z,80624.00
2023-04-11T11:07:31.656Z,67221.00
2023-04-11T11:08:31.565Z,21911.00
2023-04-11T11:09:31.523Z,5848.00
2023-04-11T11:10:32.682Z,5216.00
2023-04-11T11:11:31.379Z,5080.00
2023-04-11T11:12:31.341Z,4641.00
2023-04-11T11:13:31.287Z,4107.00
2023-04-11T11:14:31.200Z,3548.00
2023-04-11T11:15:31.134Z,3854.00
2023-04-11T11:16:31.166Z,5162.00
2023-04-11T11:17:31.051Z,5091.00
2023-04-11T11:18:30.943Z,5239.00
2023-04-11T11:19:30.922Z,5056.00
2023-04-11T11:20:30.849Z,4704.00
2023-04-11T11:21:30.806Z,3175.00
2023-04-11T11:22:30.770Z,1121.00
2023-04-11T11:23:30.679Z,4570.00
2023-04-11T11:24:30.606Z,4609.00
2023-04-11T11:25:30.533Z,2323.00
2023-04-11T11:26:30.476Z,4232.00
2023-04-11T11:27:30.477Z,3629.00
2023-04-11T11:30:48.695Z,2689.00
2023-04-11T11:31:49.671Z,1757.00
2023-04-11T11:32:49.603Z,3130.00
2023-04-11T11:33:49.546Z,4348.00
2023-04-11T11:34:49.503Z,3775.00
2023-04-11T11:35:49.445Z,3191.00
2023-04-11T11:36:49.388Z,2010.00
2023-04-11T11:37:49.260Z,3182.00
2023-04-11T11:38:49.238Z,3517.00
2023-04-11T11:39:49.184Z,3649.00
2023-04-11T11:40:49.063Z,2447.00
2023-04-11T11:41:49.062Z,2859.00
2023-04-11T11:42:48.964Z,3748.00
2023-04-11T11:43:48.926Z,3291.00
2023-04-11T11:44:48.843Z,2418.00
2023-04-11T11:45:48.819Z,2616.00
2023-04-11T11:46:48.868Z,2149.00
2023-04-11T11:47:55.935Z,2052.00
2023-04-11T11:48:48.611Z,2615.00
2023-04-11T11:49:48.548Z,2413.00
2023-04-11T11:50:48.453Z,1993.00
2023-04-11T11:51:48.437Z,2517.00
2023-04-11T11:52:48.386Z,1830.00
2023-04-11T11:53:48.269Z,2726.00
2023-04-11T11:54:48.224Z,1401.00
2023-04-11T11:55:48.149Z,3139.00
2023-04-11T11:56:48.079Z,2675.00
2023-04-11T11:57:48.052Z,3528.00
2023-04-11T11:58:48.017Z,2683.00
2023-04-11T11:59:47.954Z,2961.00
2023-04-11T12:00:47.880Z,2403.00
2023-04-11T12:01:47.810Z,3327.00
2023-04-11T12:02:47.944Z,4790.00
2023-04-11T12:03:47.912Z,3002.00
2023-04-11T12:04:47.856Z,2339.00
2023-04-11T12:08:05.986Z,1756.00
2023-04-11T12:09:06.803Z,620.00
2023-04-11T12:10:06.780Z,2203.00
2023-04-11T12:11:06.683Z,20078.00
2023-04-11T12:12:06.689Z,26648.00
2023-04-11T12:13:06.757Z,19996.00
2023-04-11T12:14:06.518Z,18763.00
2023-04-11T12:15:06.458Z,23802.00
2023-04-11T12:16:06.538Z,17250.00
2023-04-11T12:17:06.363Z,6530.00
2023-04-11T12:18:06.317Z,16872.00
2023-04-11T12:19:06.226Z,10043.00
2023-04-11T12:20:06.126Z,1652.00
2023-04-11T12:21:06.094Z,1475.00
2023-04-11T12:22:06.038Z,1301.00
2023-04-11T12:23:05.937Z,1302.00
2023-04-11T12:24:05.904Z,1322.00
2023-04-11T12:25:05.905Z,1184.00
2023-04-11T12:26:05.849Z,1043.00
2023-04-11T12:27:07.554Z,875.00
2023-04-11T12:28:05.630Z,835.00
2023-04-11T12:29:05.606Z,9038.00
2023-04-11T12:30:05.509Z,3245.00
2023-04-11T12:31:05.554Z,17747.00
2023-04-11T12:32:05.438Z,11298.00
2023-04-11T12:33:05.398Z,5597.00
2023-04-11T12:34:05.258Z,1214.00
2023-04-11T12:35:05.231Z,3268.00
2023-04-11T12:36:05.181Z,19631.00
2023-04-11T12:37:05.115Z,13216.00
2023-04-11T12:38:05.049Z,10159.00
2023-04-11T12:39:04.991Z,7084.00
2023-04-11T12:40:04.941Z,4201.00
2023-04-11T12:41:30.353Z,17302.00
2023-04-11T12:42:04.794Z,5654.00
2023-04-11T12:43:25.730Z,1223.00
2023-04-11T12:44:04.703Z,5730.00
2023-04-11T12:45:04.615Z,2595.00
2023-04-11T12:46:04.603Z,4594.00
2023-04-11T12:47:04.472Z,1452.00
2023-04-11T12:48:04.497Z,14521.00
2023-04-11T12:49:04.413Z,5404.00
2023-04-11T12:50:04.280Z,4802.00
2023-04-11T12:51:04.290Z,10974.00
2023-04-11T12:52:04.167Z,2481.00
2023-04-11T12:53:04.121Z,16755.00
2023-04-11T12:54:04.082Z,13347.00